sensor_id;sensor_type;location;lat;lon;timestamp;pressure;altitude;pressure_sealevel;temperature;humidity
37904;BME280;23738;50.422;18.758;2023-03-21T00:02:12;98485.98;;;8.76;80.33
37904;BME280;23738;50.422;18.758;2023-03-21T00:04:40;98482.83;;;8.77;80.46
37904;BME280;23738;50.422;18.758;2023-03-21T00:07:07;98485.38;;;8.79;80.64
37904;BME280;23738;50.422;18.758;2023-03-21T00:09:34;98482.27;;;8.80;80.77
37904;BME280;23738;50.422;18.758;2023-03-21T00:12:01;98482.38;;;8.78;81.01
37904;BME280;23738;50.422;18.758;2023-03-21T00:14:35;98479.65;;;8.72;81.05
37904;BME280;23738;50.422;18.758;2023-03-21T00:17:03;98480.77;;;8.70;81.15
37904;BME280;23738;50.422;18.758;2023-03-21T00:19:31;98481.07;;;8.67;81.19
37904;BME280;23738;50.422;18.758;2023-03-21T00:21:58;98475.95;;;8.66;81.35
37904;BME280;23738;50.422;18.758;2023-03-21T00:24:27;98478.34;;;8.70;81.42
37904;BME280;23738;50.422;18.758;2023-03-21T00:26:54;98476.92;;;8.71;81.52
37904;BME280;23738;50.422;18.758;2023-03-21T00:29:22;98476.40;;;8.72;81.86
37904;BME280;23738;50.422;18.758;2023-03-21T00:31:49;98474.93;;;8.70;81.92
37904;BME280;23738;50.422;18.758;2023-03-21T00:34:16;98471.67;;;8.67;81.90
37904;BME280;23738;50.422;18.758;2023-03-21T00:36:43;98470.23;;;8.66;82.03
37904;BME280;23738;50.422;18.758;2023-03-21T00:39:10;98470.38;;;8.67;82.11
37904;BME280;23738;50.422;18.758;2023-03-21T00:41:38;98465.82;;;8.70;82.21
37904;BME280;23738;50.422;18.758;2023-03-21T00:44:05;98465.67;;;8.72;82.16
37904;BME280;23738;50.422;18.758;2023-03-21T00:46:33;98465.48;;;8.73;82.39
37904;BME280;23738;50.422;18.758;2023-03-21T00:49:01;98463.77;;;8.72;82.45
37904;BME280;23738;50.422;18.758;2023-03-21T00:51:28;98463.31;;;8.71;82.54
37904;BME280;23738;50.422;18.758;2023-03-21T00:53:57;98461.35;;;8.68;82.58
37904;BME280;23738;50.422;18.758;2023-03-21T00:56:24;98456.60;;;8.68;82.51
37904;BME280;23738;50.422;18.758;2023-03-21T00:58:51;98454.86;;;8.68;82.71
37904;BME280;23738;50.422;18.758;2023-03-21T01:01:19;98451.34;;;8.68;82.77
37904;BME280;23738;50.422;18.758;2023-03-21T01:03:46;98450.20;;;8.67;82.83
37904;BME280;23738;50.422;18.758;2023-03-21T01:06:17;98453.45;;;8.65;82.97
37904;BME280;23738;50.422;18.758;2023-03-21T01:08:47;98450.00;;;8.67;83.04
37904;BME280;23738;50.422;18.758;2023-03-21T01:11:17;98443.20;;;8.74;83.08
37904;BME280;23738;50.422;18.758;2023-03-21T01:13:46;98447.70;;;8.83;83.15
37904;BME280;23738;50.422;18.758;2023-03-21T01:16:13;98445.66;;;8.91;83.26
37904;BME280;23738;50.422;18.758;2023-03-21T01:18:41;98446.73;;;8.95;83.14
37904;BME280;23738;50.422;18.758;2023-03-21T01:21:11;98448.42;;;8.98;83.23
37904;BME280;23738;50.422;18.758;2023-03-21T01:23:39;98450.61;;;8.97;82.90
37904;BME280;23738;50.422;18.758;2023-03-21T01:26:08;98444.77;;;8.97;82.80
37904;BME280;23738;50.422;18.758;2023-03-21T01:28:37;98441.38;;;8.99;82.79
37904;BME280;23738;50.422;18.758;2023-03-21T01:31:06;98445.35;;;8.99;82.47
37904;BME280;23738;50.422;18.758;2023-03-21T01:33:33;98443.41;;;8.99;82.47
37904;BME280;23738;50.422;18.758;2023-03-21T01:36:01;98443.86;;;9.00;82.40
37904;BME280;23738;50.422;18.758;2023-03-21T01:38:30;98442.87;;;8.98;82.29
37904;BME280;23738;50.422;18.758;2023-03-21T01:40:59;98442.92;;;8.94;82.32
37904;BME280;23738;50.422;18.758;2023-03-21T01:43:29;98438.59;;;8.88;82.20
37904;BME280;23738;50.422;18.758;2023-03-21T01:46:28;98441.72;;;8.90;82.27
37904;BME280;23738;50.422;18.758;2023-03-21T01:49:00;98441.39;;;8.90;82.11
37904;BME280;23738;50.422;18.758;2023-03-21T01:51:29;98438.61;;;8.91;82.31
37904;BME280;23738;50.422;18.758;2023-03-21T01:53:58;98433.77;;;8.93;82.30
37904;BME280;23738;50.422;18.758;2023-03-21T01:56:29;98427.70;;;8.90;82.12
37904;BME280;23738;50.422;18.758;2023-03-21T01:59:04;98431.73;;;8.93;82.20
37904;BME280;23738;50.422;18.758;2023-03-21T02:01:32;98432.39;;;8.94;82.28
37904;BME280;23738;50.422;18.758;2023-03-21T02:04:01;98431.35;;;8.97;82.26
37904;BME280;23738;50.422;18.758;2023-03-21T02:06:32;98428.78;;;8.99;82.44
37904;BME280;23738;50.422;18.758;2023-03-21T02:09:05;98425.64;;;9.01;82.31
37904;BME280;23738;50.422;18.758;2023-03-21T02:11:35;98426.13;;;9.01;82.23
37904;BME280;23738;50.422;18.758;2023-03-21T02:14:04;98426.05;;;8.99;82.44
37904;BME280;23738;50.422;18.758;2023-03-21T02:16:42;98425.39;;;8.97;82.31
37904;BME280;23738;50.422;18.758;2023-03-21T02:22:27;98429.58;;;8.92;82.22
37904;BME280;23738;50.422;18.758;2023-03-21T02:25:13;98429.67;;;8.92;82.25
37904;BME280;23738;50.422;18.758;2023-03-21T02:27:48;98428.81;;;8.95;82.31
37904;BME280;23738;50.422;18.758;2023-03-21T02:30:36;98429.23;;;8.96;82.41
37904;BME280;23738;50.422;18.758;2023-03-21T02:33:36;98430.34;;;8.97;82.62
37904;BME280;23738;50.422;18.758;2023-03-21T02:36:23;98432.33;;;8.98;82.52
37904;BME280;23738;50.422;18.758;2023-03-21T02:38:54;98431.77;;;8.98;82.58
37904;BME280;23738;50.422;18.758;2023-03-21T02:41:32;98431.70;;;8.99;82.59
37904;BME280;23738;50.422;18.758;2023-03-21T02:44:07;98429.13;;;8.98;82.64
37904;BME280;23738;50.422;18.758;2023-03-21T02:46:42;98433.41;;;9.00;82.64
37904;BME280;23738;50.422;18.758;2023-03-21T02:49:16;98431.62;;;8.99;82.76
37904;BME280;23738;50.422;18.758;2023-03-21T02:51:47;98423.25;;;8.96;82.58
37904;BME280;23738;50.422;18.758;2023-03-21T02:54:18;98430.25;;;8.96;82.83
37904;BME280;23738;50.422;18.758;2023-03-21T02:56:49;98427.45;;;8.96;82.71
37904;BME280;23738;50.422;18.758;2023-03-21T02:59:20;98425.92;;;8.97;82.72
37904;BME280;23738;50.422;18.758;2023-03-21T03:01:49;98424.65;;;9.00;82.91
37904;BME280;23738;50.422;18.758;2023-03-21T03:04:20;98423.77;;;9.04;82.98
37904;BME280;23738;50.422;18.758;2023-03-21T03:07:07;98427.27;;;9.07;82.96
37904;BME280;23738;50.422;18.758;2023-03-21T03:09:44;98421.92;;;9.05;82.89
37904;BME280;23738;50.422;18.758;2023-03-21T03:12:22;98418.09;;;9.01;82.90
37904;BME280;23738;50.422;18.758;2023-03-21T03:14:59;98417.09;;;8.98;82.83
37904;BME280;23738;50.422;18.758;2023-03-21T03:17:47;98418.70;;;8.96;82.83
37904;BME280;23738;50.422;18.758;2023-03-21T03:20:23;98426.65;;;8.98;82.91
37904;BME280;23738;50.422;18.758;2023-03-21T03:23:01;98423.15;;;8.95;82.84
37904;BME280;23738;50.422;18.758;2023-03-21T03:25:34;98421.20;;;8.90;82.88
37904;BME280;23738;50.422;18.758;2023-03-21T03:28:05;98417.02;;;8.85;83.08
37904;BME280;23738;50.422;18.758;2023-03-21T03:30:35;98420.84;;;8.83;83.07
37904;BME280;23738;50.422;18.758;2023-03-21T03:33:06;98422.56;;;8.82;83.00
37904;BME280;23738;50.422;18.758;2023-03-21T03:35:35;98424.38;;;8.81;83.15
37904;BME280;23738;50.422;18.758;2023-03-21T03:38:04;98423.47;;;8.83;83.30
37904;BME280;23738;50.422;18.758;2023-03-21T03:40:36;98424.48;;;8.83;83.36
37904;BME280;23738;50.422;18.758;2023-03-21T03:43:10;98426.62;;;8.79;83.43
37904;BME280;23738;50.422;18.758;2023-03-21T03:45:45;98421.27;;;8.74;83.47
37904;BME280;23738;50.422;18.758;2023-03-21T03:48:18;98420.96;;;8.69;83.44
37904;BME280;23738;50.422;18.758;2023-03-21T03:50:53;98420.81;;;8.72;83.56
37904;BME280;23738;50.422;18.758;2023-03-21T03:53:27;98417.45;;;8.76;83.55
37904;BME280;23738;50.422;18.758;2023-03-21T03:55:57;98422.33;;;8.79;83.76
37904;BME280;23738;50.422;18.758;2023-03-21T03:58:25;98427.67;;;8.81;83.75
37904;BME280;23738;50.422;18.758;2023-03-21T04:00:54;98415.13;;;8.79;83.79
37904;BME280;23738;50.422;18.758;2023-03-21T04:03:22;98418.27;;;8.79;83.97
37904;BME280;23738;50.422;18.758;2023-03-21T04:05:49;98415.33;;;8.79;83.88
37904;BME280;23738;50.422;18.758;2023-03-21T04:08:17;98418.35;;;8.79;83.88
37904;BME280;23738;50.422;18.758;2023-03-21T04:10:44;98417.80;;;8.79;83.88
37904;BME280;23738;50.422;18.758;2023-03-21T04:13:11;98418.60;;;8.82;83.91
37904;BME280;23738;50.422;18.758;2023-03-21T04:15:39;98415.81;;;8.82;83.96
37904;BME280;23738;50.422;18.758;2023-03-21T04:18:06;98419.08;;;8.81;84.08
37904;BME280;23738;50.422;18.758;2023-03-21T04:20:34;98417.79;;;8.78;83.95
37904;BME280;23738;50.422;18.758;2023-03-21T04:23:01;98414.84;;;8.73;84.04
37904;BME280;23738;50.422;18.758;2023-03-21T04:25:28;98416.05;;;8.76;84.07
37904;BME280;23738;50.422;18.758;2023-03-21T04:27:56;98414.88;;;8.77;83.98
37904;BME280;23738;50.422;18.758;2023-03-21T04:30:23;98412.41;;;8.80;84.08
37904;BME280;23738;50.422;18.758;2023-03-21T04:32:51;98408.30;;;8.82;84.28
37904;BME280;23738;50.422;18.758;2023-03-21T04:35:23;98406.91;;;8.80;84.21
37904;BME280;23738;50.422;18.758;2023-03-21T04:37:50;98403.54;;;8.74;84.19
37904;BME280;23738;50.422;18.758;2023-03-21T04:40:18;98400.91;;;8.71;84.24
37904;BME280;23738;50.422;18.758;2023-03-21T04:42:46;98402.29;;;8.71;84.25
37904;BME280;23738;50.422;18.758;2023-03-21T04:45:14;98407.65;;;8.69;84.25
37904;BME280;23738;50.422;18.758;2023-03-21T04:47:42;98409.52;;;8.70;84.35
37904;BME280;23738;50.422;18.758;2023-03-21T04:50:11;98411.67;;;8.68;84.33
37904;BME280;23738;50.422;18.758;2023-03-21T04:52:39;98411.10;;;8.64;84.48
37904;BME280;23738;50.422;18.758;2023-03-21T04:55:08;98408.98;;;8.63;84.64
37904;BME280;23738;50.422;18.758;2023-03-21T04:57:36;98411.30;;;8.62;84.62
37904;BME280;23738;50.422;18.758;2023-03-21T05:00:06;98414.02;;;8.63;84.69
37904;BME280;23738;50.422;18.758;2023-03-21T05:02:36;98414.08;;;8.66;84.71
37904;BME280;23738;50.422;18.758;2023-03-21T05:05:04;98412.33;;;8.68;84.87
37904;BME280;23738;50.422;18.758;2023-03-21T05:07:32;98414.46;;;8.72;84.98
37904;BME280;23738;50.422;18.758;2023-03-21T05:09:59;98413.63;;;8.70;84.83
37904;BME280;23738;50.422;18.758;2023-03-21T05:12:26;98411.05;;;8.66;84.86
37904;BME280;23738;50.422;18.758;2023-03-21T05:14:53;98414.30;;;8.62;84.90
37904;BME280;23738;50.422;18.758;2023-03-21T05:17:21;98414.11;;;8.57;84.89
37904;BME280;23738;50.422;18.758;2023-03-21T05:19:50;98418.45;;;8.56;84.96
37904;BME280;23738;50.422;18.758;2023-03-21T05:22:19;98422.23;;;8.57;85.06
37904;BME280;23738;50.422;18.758;2023-03-21T05:24:46;98422.35;;;8.60;85.25
37904;BME280;23738;50.422;18.758;2023-03-21T05:27:16;98420.40;;;8.60;85.26
37904;BME280;23738;50.422;18.758;2023-03-21T05:30:00;98419.93;;;8.58;85.41
37904;BME280;23738;50.422;18.758;2023-03-21T05:32:27;98421.70;;;8.56;85.50
37904;BME280;23738;50.422;18.758;2023-03-21T05:34:54;98424.99;;;8.58;85.58
37904;BME280;23738;50.422;18.758;2023-03-21T05:37:22;98424.45;;;8.60;85.69
37904;BME280;23738;50.422;18.758;2023-03-21T05:39:49;98425.23;;;8.62;85.66
37904;BME280;23738;50.422;18.758;2023-03-21T05:42:17;98425.48;;;8.64;85.86
37904;BME280;23738;50.422;18.758;2023-03-21T05:44:44;98426.85;;;8.63;85.91
37904;BME280;23738;50.422;18.758;2023-03-21T05:47:12;98433.95;;;8.58;86.00
37904;BME280;23738;50.422;18.758;2023-03-21T05:49:40;98435.17;;;8.54;85.87
37904;BME280;23738;50.422;18.758;2023-03-21T05:52:08;98437.63;;;8.53;85.87
37904;BME280;23738;50.422;18.758;2023-03-21T05:54:35;98440.14;;;8.54;86.19
37904;BME280;23738;50.422;18.758;2023-03-21T05:57:03;98443.38;;;8.52;85.97
37904;BME280;23738;50.422;18.758;2023-03-21T05:59:30;98445.19;;;8.48;85.98
37904;BME280;23738;50.422;18.758;2023-03-21T06:01:58;98448.34;;;8.47;86.31
37904;BME280;23738;50.422;18.758;2023-03-21T06:04:25;98453.15;;;8.45;86.27
37904;BME280;23738;50.422;18.758;2023-03-21T06:06:52;98451.20;;;8.45;86.28
37904;BME280;23738;50.422;18.758;2023-03-21T06:09:20;98453.33;;;8.48;86.48
37904;BME280;23738;50.422;18.758;2023-03-21T06:11:49;98455.73;;;8.53;86.38
37904;BME280;23738;50.422;18.758;2023-03-21T06:14:18;98455.04;;;8.52;86.42
37904;BME280;23738;50.422;18.758;2023-03-21T06:16:45;98453.70;;;8.52;86.64
37904;BME280;23738;50.422;18.758;2023-03-21T06:19:13;98455.95;;;8.51;86.61
37904;BME280;23738;50.422;18.758;2023-03-21T06:21:40;98456.73;;;8.52;86.50
37904;BME280;23738;50.422;18.758;2023-03-21T06:24:08;98458.75;;;8.51;86.54
37904;BME280;23738;50.422;18.758;2023-03-21T06:26:35;98462.20;;;8.51;86.56
37904;BME280;23738;50.422;18.758;2023-03-21T06:29:03;98464.98;;;8.50;86.53
37904;BME280;23738;50.422;18.758;2023-03-21T06:31:31;98463.41;;;8.49;86.69
37904;BME280;23738;50.422;18.758;2023-03-21T06:33:58;98463.23;;;8.47;86.85
37904;BME280;23738;50.422;18.758;2023-03-21T06:36:25;98466.38;;;8.45;86.68
37904;BME280;23738;50.422;18.758;2023-03-21T06:38:52;98465.36;;;8.42;86.66
37904;BME280;23738;50.422;18.758;2023-03-21T06:41:20;98463.96;;;8.41;86.70
37904;BME280;23738;50.422;18.758;2023-03-21T06:43:47;98468.77;;;8.43;86.89
37904;BME280;23738;50.422;18.758;2023-03-21T06:46:14;98464.28;;;8.45;86.77
37904;BME280;23738;50.422;18.758;2023-03-21T06:48:41;98459.83;;;8.42;86.95
37904;BME280;23738;50.422;18.758;2023-03-21T06:51:11;98469.23;;;8.44;87.07
37904;BME280;23738;50.422;18.758;2023-03-21T06:53:39;98469.14;;;8.45;87.04
37904;BME280;23738;50.422;18.758;2023-03-21T06:56:09;98469.77;;;8.48;87.06
37904;BME280;23738;50.422;18.758;2023-03-21T06:58:37;98474.42;;;8.55;87.22
37904;BME280;23738;50.422;18.758;2023-03-21T07:01:06;98473.23;;;8.61;87.20
37904;BME280;23738;50.422;18.758;2023-03-21T07:03:34;98472.10;;;8.69;87.56
37904;BME280;23738;50.422;18.758;2023-03-21T07:06:05;98473.34;;;8.76;87.49
37904;BME280;23738;50.422;18.758;2023-03-21T07:08:34;98481.91;;;8.80;87.59
37904;BME280;23738;50.422;18.758;2023-03-21T07:11:02;98478.59;;;8.85;87.60
37904;BME280;23738;50.422;18.758;2023-03-21T07:13:30;98478.25;;;8.89;87.50
37904;BME280;23738;50.422;18.758;2023-03-21T07:15:57;98477.55;;;8.96;87.66
37904;BME280;23738;50.422;18.758;2023-03-21T07:18:24;98477.67;;;9.01;87.64
37904;BME280;23738;50.422;18.758;2023-03-21T07:20:52;98482.80;;;9.04;87.68
37904;BME280;23738;50.422;18.758;2023-03-21T07:23:21;98481.49;;;9.03;87.65
37904;BME280;23738;50.422;18.758;2023-03-21T07:25:49;98484.86;;;9.03;87.61
37904;BME280;23738;50.422;18.758;2023-03-21T07:28:17;98485.21;;;9.06;87.63
37904;BME280;23738;50.422;18.758;2023-03-21T07:30:50;98481.73;;;9.07;87.69
37904;BME280;23738;50.422;18.758;2023-03-21T07:33:17;98487.52;;;9.10;87.71
37904;BME280;23738;50.422;18.758;2023-03-21T07:35:45;98487.02;;;9.11;87.83
37904;BME280;23738;50.422;18.758;2023-03-21T07:38:12;98488.58;;;9.11;87.97
37904;BME280;23738;50.422;18.758;2023-03-21T07:40:42;98488.41;;;9.10;87.84
37904;BME280;23738;50.422;18.758;2023-03-21T07:43:09;98489.43;;;9.10;87.96
37904;BME280;23738;50.422;18.758;2023-03-21T07:45:36;98493.27;;;9.08;87.74
37904;BME280;23738;50.422;18.758;2023-03-21T07:48:04;98493.92;;;9.08;87.89
37904;BME280;23738;50.422;18.758;2023-03-21T07:50:32;98491.67;;;9.08;88.03
37904;BME280;23738;50.422;18.758;2023-03-21T07:52:59;98497.17;;;9.11;88.01
37904;BME280;23738;50.422;18.758;2023-03-21T07:55:27;98496.31;;;9.14;88.13
37904;BME280;23738;50.422;18.758;2023-03-21T07:57:54;98500.64;;;9.17;88.06
37904;BME280;23738;50.422;18.758;2023-03-21T08:00:23;98501.60;;;9.18;87.95
37904;BME280;23738;50.422;18.758;2023-03-21T08:02:52;98502.67;;;9.24;88.19
37904;BME280;23738;50.422;18.758;2023-03-21T08:05:21;98502.45;;;9.31;88.25
37904;BME280;23738;50.422;18.758;2023-03-21T08:07:49;98501.58;;;9.31;88.20
37904;BME280;23738;50.422;18.758;2023-03-21T08:10:17;98503.56;;;9.25;88.07
37904;BME280;23738;50.422;18.758;2023-03-21T08:12:45;98503.80;;;9.20;88.16
37904;BME280;23738;50.422;18.758;2023-03-21T08:15:13;98502.58;;;9.17;88.04
37904;BME280;23738;50.422;18.758;2023-03-21T08:17:41;98506.06;;;9.16;88.13
37904;BME280;23738;50.422;18.758;2023-03-21T08:20:13;98499.30;;;9.08;88.09
37904;BME280;23738;50.422;18.758;2023-03-21T08:22:42;98508.74;;;9.13;88.21
37904;BME280;23738;50.422;18.758;2023-03-21T08:25:11;98514.92;;;9.11;88.35
37904;BME280;23738;50.422;18.758;2023-03-21T08:27:39;98513.83;;;9.09;88.20
37904;BME280;23738;50.422;18.758;2023-03-21T08:30:10;98509.52;;;9.11;88.22
37904;BME280;23738;50.422;18.758;2023-03-21T08:32:38;98509.59;;;9.13;88.33
37904;BME280;23738;50.422;18.758;2023-03-21T08:35:08;98507.70;;;9.10;88.11
37904;BME280;23738;50.422;18.758;2023-03-21T08:37:36;98511.80;;;9.08;88.23
37904;BME280;23738;50.422;18.758;2023-03-21T08:40:05;98515.05;;;9.06;88.25
37904;BME280;23738;50.422;18.758;2023-03-21T08:42:36;98516.63;;;9.09;88.13
37904;BME280;23738;50.422;18.758;2023-03-21T08:45:05;98515.19;;;9.12;88.20
37904;BME280;23738;50.422;18.758;2023-03-21T08:47:33;98514.77;;;9.17;88.24
37904;BME280;23738;50.422;18.758;2023-03-21T08:50:00;98515.09;;;9.24;88.38
37904;BME280;23738;50.422;18.758;2023-03-21T08:52:27;98515.54;;;9.31;88.43
37904;BME280;23738;50.422;18.758;2023-03-21T08:54:55;98515.96;;;9.33;88.31
37904;BME280;23738;50.422;18.758;2023-03-21T08:57:22;98519.39;;;9.36;88.42
37904;BME280;23738;50.422;18.758;2023-03-21T08:59:49;98524.17;;;9.41;88.29
37904;BME280;23738;50.422;18.758;2023-03-21T09:02:17;98525.70;;;9.46;88.18
37904;BME280;23738;50.422;18.758;2023-03-21T09:04:45;98527.29;;;9.46;87.92
37904;BME280;23738;50.422;18.758;2023-03-21T09:07:13;98529.13;;;9.44;87.97
37904;BME280;23738;50.422;18.758;2023-03-21T09:09:43;98530.54;;;9.42;87.92
37904;BME280;23738;50.422;18.758;2023-03-21T09:12:11;98530.11;;;9.44;88.05
37904;BME280;23738;50.422;18.758;2023-03-21T09:14:38;98530.02;;;9.47;87.87
37904;BME280;23738;50.422;18.758;2023-03-21T09:17:07;98531.84;;;9.46;87.69
37904;BME280;23738;50.422;18.758;2023-03-21T09:19:34;98533.80;;;9.47;87.56
37904;BME280;23738;50.422;18.758;2023-03-21T09:22:01;98535.07;;;9.46;87.46
37904;BME280;23738;50.422;18.758;2023-03-21T09:24:30;98535.14;;;9.44;87.50
37904;BME280;23738;50.422;18.758;2023-03-21T09:26:57;98538.66;;;9.53;87.69
37904;BME280;23738;50.422;18.758;2023-03-21T09:29:25;98543.34;;;9.61;87.60
37904;BME280;23738;50.422;18.758;2023-03-21T09:31:52;98541.89;;;9.68;87.70
37904;BME280;23738;50.422;18.758;2023-03-21T09:34:19;98543.20;;;9.72;87.55
37904;BME280;23738;50.422;18.758;2023-03-21T09:36:47;98546.94;;;9.71;87.24
37904;BME280;23738;50.422;18.758;2023-03-21T09:39:14;98549.02;;;9.67;86.86
37904;BME280;23738;50.422;18.758;2023-03-21T09:41:56;98552.91;;;9.62;86.68
37904;BME280;23738;50.422;18.758;2023-03-21T09:44:39;98551.89;;;9.54;86.51
37904;BME280;23738;50.422;18.758;2023-03-21T09:47:15;98554.05;;;9.50;86.75
37904;BME280;23738;50.422;18.758;2023-03-21T09:49:49;98554.48;;;9.48;86.60
37904;BME280;23738;50.422;18.758;2023-03-21T09:52:22;98555.58;;;9.47;86.57
37904;BME280;23738;50.422;18.758;2023-03-21T09:54:51;98559.87;;;9.47;86.48
37904;BME280;23738;50.422;18.758;2023-03-21T09:57:29;98558.69;;;9.47;86.58
37904;BME280;23738;50.422;18.758;2023-03-21T10:00:00;98558.95;;;9.51;86.43
37904;BME280;23738;50.422;18.758;2023-03-21T10:02:36;98556.05;;;9.55;86.71
37904;BME280;23738;50.422;18.758;2023-03-21T10:05:12;98553.30;;;9.60;86.43
37904;BME280;23738;50.422;18.758;2023-03-21T10:07:46;98554.54;;;9.63;86.47
37904;BME280;23738;50.422;18.758;2023-03-21T10:10:21;98554.29;;;9.65;86.26
37904;BME280;23738;50.422;18.758;2023-03-21T10:12:50;98553.67;;;9.65;86.10
37904;BME280;23738;50.422;18.758;2023-03-21T10:15:21;98551.85;;;9.66;86.31
37904;BME280;23738;50.422;18.758;2023-03-21T10:17:55;98551.23;;;9.71;86.34
37904;BME280;23738;50.422;18.758;2023-03-21T10:20:25;98552.85;;;9.77;86.10
37904;BME280;23738;50.422;18.758;2023-03-21T10:22:53;98548.81;;;9.79;85.77
37904;BME280;23738;50.422;18.758;2023-03-21T10:25:25;98553.41;;;9.80;85.41
37904;BME280;23738;50.422;18.758;2023-03-21T10:27:54;98552.74;;;9.78;85.45
37904;BME280;23738;50.422;18.758;2023-03-21T10:30:29;98554.48;;;9.78;85.38
37904;BME280;23738;50.422;18.758;2023-03-21T10:33:01;98552.39;;;9.82;85.51
37904;BME280;23738;50.422;18.758;2023-03-21T10:35:31;98550.81;;;9.87;85.26
37904;BME280;23738;50.422;18.758;2023-03-21T10:38:03;98547.27;;;9.92;85.59
37904;BME280;23738;50.422;18.758;2023-03-21T10:40:31;98550.56;;;10.02;85.40
37904;BME280;23738;50.422;18.758;2023-03-21T10:43:16;98550.84;;;10.11;85.36
37904;BME280;23738;50.422;18.758;2023-03-21T10:45:46;98554.16;;;10.20;85.28
37904;BME280;23738;50.422;18.758;2023-03-21T10:48:14;98551.48;;;10.28;84.65
37904;BME280;23738;50.422;18.758;2023-03-21T10:50:42;98551.10;;;10.32;84.81
37904;BME280;23738;50.422;18.758;2023-03-21T10:53:17;98552.58;;;10.38;84.65
37904;BME280;23738;50.422;18.758;2023-03-21T10:55:49;98550.95;;;10.46;84.35
37904;BME280;23738;50.422;18.758;2023-03-21T10:58:21;98554.50;;;10.52;84.11
37904;BME280;23738;50.422;18.758;2023-03-21T11:00:56;98550.27;;;10.56;84.39
37904;BME280;23738;50.422;18.758;2023-03-21T11:03:26;98546.14;;;10.62;84.52
37904;BME280;23738;50.422;18.758;2023-03-21T11:06:00;98545.25;;;10.76;84.06
37904;BME280;23738;50.422;18.758;2023-03-21T11:08:28;98541.77;;;10.81;83.37
37904;BME280;23738;50.422;18.758;2023-03-21T11:11:02;98543.90;;;10.82;83.22
37904;BME280;23738;50.422;18.758;2023-03-21T11:13:35;98543.13;;;10.85;83.15
37904;BME280;23738;50.422;18.758;2023-03-21T11:16:08;98543.95;;;10.90;83.65
37904;BME280;23738;50.422;18.758;2023-03-21T11:18:41;98547.71;;;11.04;83.77
37904;BME280;23738;50.422;18.758;2023-03-21T11:21:10;98549.35;;;11.15;83.25
37904;BME280;23738;50.422;18.758;2023-03-21T11:23:41;98546.71;;;11.16;82.92
37904;BME280;23738;50.422;18.758;2023-03-21T11:26:17;98550.02;;;11.10;82.42
37904;BME280;23738;50.422;18.758;2023-03-21T11:28:46;98548.31;;;11.02;81.97
37904;BME280;23738;50.422;18.758;2023-03-21T11:31:13;98544.45;;;10.95;81.52
37904;BME280;23738;50.422;18.758;2023-03-21T11:33:46;98544.92;;;10.90;81.35
37904;BME280;23738;50.422;18.758;2023-03-21T11:36:31;98541.95;;;10.85;81.50
37904;BME280;23738;50.422;18.758;2023-03-21T11:39:22;98542.09;;;10.79;81.30
37904;BME280;23738;50.422;18.758;2023-03-21T11:41:53;98538.83;;;10.71;81.58
37904;BME280;23738;50.422;18.758;2023-03-21T11:44:27;98536.82;;;10.62;81.54
37904;BME280;23738;50.422;18.758;2023-03-21T11:46:55;98536.00;;;10.63;81.95
37904;BME280;23738;50.422;18.758;2023-03-21T11:49:23;98533.66;;;10.68;82.14
37904;BME280;23738;50.422;18.758;2023-03-21T11:51:57;98534.69;;;10.77;81.80
37904;BME280;23738;50.422;18.758;2023-03-21T11:54:29;98535.11;;;10.77;81.77
37904;BME280;23738;50.422;18.758;2023-03-21T11:57:03;98536.64;;;10.77;81.75
37904;BME280;23738;50.422;18.758;2023-03-21T11:59:39;98533.71;;;10.78;81.86
37904;BME280;23738;50.422;18.758;2023-03-21T12:02:25;98533.46;;;10.73;81.63
37904;BME280;23738;50.422;18.758;2023-03-21T12:05:04;98527.64;;;10.67;81.72
37904;BME280;23738;50.422;18.758;2023-03-21T12:07:48;98527.73;;;10.68;82.01
37904;BME280;23738;50.422;18.758;2023-03-21T12:10:30;98523.35;;;10.78;82.05
37904;BME280;23738;50.422;18.758;2023-03-21T12:13:08;98524.52;;;10.89;82.08
37904;BME280;23738;50.422;18.758;2023-03-21T12:15:42;98518.95;;;10.94;81.95
37904;BME280;23738;50.422;18.758;2023-03-21T12:18:22;98520.05;;;10.94;82.00
37904;BME280;23738;50.422;18.758;2023-03-21T12:20:59;98523.10;;;10.98;82.01
37904;BME280;23738;50.422;18.758;2023-03-21T12:23:36;98519.85;;;10.99;81.78
37904;BME280;23738;50.422;18.758;2023-03-21T12:26:17;98518.75;;;10.98;81.85
37904;BME280;23738;50.422;18.758;2023-03-21T12:29:01;98519.10;;;10.92;81.63
37904;BME280;23738;50.422;18.758;2023-03-21T12:31:42;98518.20;;;10.89;81.73
37904;BME280;23738;50.422;18.758;2023-03-21T12:34:20;98512.95;;;10.87;81.59
37904;BME280;23738;50.422;18.758;2023-03-21T12:37:03;98511.18;;;10.85;81.78
37904;BME280;23738;50.422;18.758;2023-03-21T12:39:38;98503.85;;;10.84;81.63
37904;BME280;23738;50.422;18.758;2023-03-21T12:42:24;98504.80;;;10.84;81.67
37904;BME280;23738;50.422;18.758;2023-03-21T12:44:57;98503.29;;;10.83;81.63
37904;BME280;23738;50.422;18.758;2023-03-21T12:47:29;98494.05;;;10.78;81.51
37904;BME280;23738;50.422;18.758;2023-03-21T12:50:01;98499.91;;;10.82;81.68
37904;BME280;23738;50.422;18.758;2023-03-21T12:52:31;98499.34;;;10.86;81.62
37904;BME280;23738;50.422;18.758;2023-03-21T12:55:03;98495.30;;;10.91;81.53
37904;BME280;23738;50.422;18.758;2023-03-21T12:57:35;98494.22;;;10.94;81.28
37904;BME280;23738;50.422;18.758;2023-03-21T13:00:11;98493.70;;;10.91;81.35
37904;BME280;23738;50.422;18.758;2023-03-21T13:02:40;98491.25;;;10.83;80.73
37904;BME280;23738;50.422;18.758;2023-03-21T13:05:16;98490.83;;;10.74;80.92
37904;BME280;23738;50.422;18.758;2023-03-21T13:07:48;98485.77;;;10.70;80.95
37904;BME280;23738;50.422;18.758;2023-03-21T13:10:17;98484.64;;;10.73;81.16
37904;BME280;23738;50.422;18.758;2023-03-21T13:13:02;98485.31;;;10.75;80.96
37904;BME280;23738;50.422;18.758;2023-03-21T13:15:42;98480.23;;;10.73;80.76
37904;BME280;23738;50.422;18.758;2023-03-21T13:18:18;98482.41;;;10.70;80.44
37904;BME280;23738;50.422;18.758;2023-03-21T13:20:51;98481.50;;;10.63;80.39